Time;durP1;ratioP1;P1;durP2;ratioP2;P2;SDS_P1;SDS_P2;PMS_P1;PMS_P2;Temp;Humidity;BMP_temperature;BMP_pressure;BME280_temperature;BME280_humidity;BME280_pressure;Samples;Min_cycle;Max_cycle;Signal;HPM_P1;HPM_P2
2022/02/13 00:01:10;;;;;;;;;;;;;;;;;;2198910;59;1911;-73
2022/02/13 00:03:43;;;;;;;;;;;;;;;;;;2201829;59;1920;-72
2022/02/13 00:06:19;;;;;;;;;;;;;;;;;;2202786;67;1197;-73
2022/02/13 00:08:53;;;;;;;;;;;;;;;;;;2203244;59;1544;-73
2022/02/13 00:11:26;;;;;;;;;;;;;;;;;;2202474;59;1672;-72
2022/02/13 00:14:00;;;;;;;;;;;;;;;;;;2201792;59;1752;-73
2022/02/13 00:16:37;;;;;;;;;;;;;;;;;;2199539;59;1418;-73
2022/02/13 00:19:11;;;;;;;;;;;;;;;;;;2202383;59;1725;-73
2022/02/13 00:21:47;;;;;;;;;;;;;;;;;;2202235;59;1733;-74
2022/02/13 00:24:20;;;;;;;;;;;;;;;;;;2201962;59;1932;-73
2022/02/13 00:26:54;;;;;;;;;;;;;;;;;;2202397;59;1283;-73
2022/02/13 00:29:27;;;;;;;;;;;;;;;;;;2203037;59;1868;-72
2022/02/13 00:32:00;;;;;;;;;;;;;;;;;;2199089;59;1643;-72
2022/02/13 00:34:34;;;;;;;;;;;;;;;;;;2202575;59;1833;-73
2022/02/13 00:37:10;;;;;;;;;;;;;;;;;;2202472;59;1136;-72
2022/02/13 00:39:44;;;;;;;;;;;;;;;;;;2202986;59;1320;-73
2022/02/13 00:42:20;;;;;;;;;;;;;;;;;;2203198;67;1233;-72
2022/02/13 00:44:54;;;;;;;;;;;;;;;;;;2203803;59;1420;-72
2022/02/13 00:47:27;;;;;;;;;;;;;;;;;;2203797;59;1464;-72
2022/02/13 00:50:01;;;;;;;;;;;;;;;;;;2203262;59;1771;-72
2022/02/13 00:52:37;;;;;;;;;;;;;;;;;;2202230;59;1552;-73
2022/02/13 00:55:13;;;;;;;;;;;;;;;;;;2202704;59;1915;-72
2022/02/13 00:57:47;;;;;;;;;;;;;;;;;;2203387;60;1029;-73
2022/02/13 01:00:20;;;;;;;;;;;;;;;;;;2203272;59;1169;-73
2022/02/13 01:02:54;;;;;;;;;;;;;;;;;;2203316;59;1949;-72
2022/02/13 01:05:27;;;;;;;;;;;;;;;;;;2205138;59;1669;-72
2022/02/13 01:08:03;;;;;;;;;;;;;;;;;;2202153;59;1772;-73
2022/02/13 01:10:37;;;;;;;;;;;;;;;;;;2201963;59;1625;-72
2022/02/13 01:13:10;;;;;;;;;;;;;;;;;;2198828;59;1607;-73
2022/02/13 01:15:44;;;;;;;;;;;;;;;;;;2202583;59;1342;-72
2022/02/13 01:18:17;;;;;;;;;;;;;;;;;;2201841;59;1361;-72
2022/02/13 01:20:51;;;;;;;;;;;;;;;;;;2203380;59;1406;-72
2022/02/13 01:23:27;;;;;;;;;;;;;;;;;;2202838;59;1940;-73
2022/02/13 01:26:00;;;;;;;;;;;;;;;;;;2204034;59;1254;-72
2022/02/13 01:28:34;;;;;;;;;;;;;;;;;;2204048;59;1426;-72
2022/02/13 01:31:08;;;;;;;;;;;;;;;;;;2204075;59;1134;-72
2022/02/13 01:33:41;;;;;;;;;;;;;;;;;;2203471;59;1295;-73
2022/02/13 01:36:16;;;;;;;;;;;;;;;;;;2203145;59;1108;-73
2022/02/13 01:39:01;;;;;;;;;;;;;;;;;;2202271;59;1568;-72
2022/02/13 01:41:35;;;;;;;;;;;;;;;;;;2202069;59;1655;-73
2022/02/13 01:44:08;;;;;;;;;;;;;;;;;;2200743;59;1936;-72
2022/02/13 01:46:44;;;;;;;;;;;;;;;;;;2198657;59;2012;-72
2022/02/13 01:49:23;;;;;;;;;;;;;;;;;;2202718;59;1537;-72
2022/02/13 01:52:07;;;;;;;;;;;;;;;;;;2204272;59;1105;-72
2022/02/13 01:54:43;;;;;;;;;;;;;;;;;;2202745;59;2194;-72
2022/02/13 01:57:16;;;;;;;;;;;;;;;;;;2204278;59;1486;-73
2022/02/13 01:59:50;;;;;;;;;;;;;;;;;;2201679;59;1703;-72
2022/02/13 02:02:23;;;;;;;;;;;;;;;;;;2198851;59;1664;-72
2022/02/13 02:04:57;;;;;;;;;;;;;;;;;;2202617;59;1932;-73
2022/02/13 02:07:30;;;;;;;;;;;;;;;;;;2202197;59;1255;-72
2022/02/13 02:10:07;;;;;;;;;;;;;;;;;;2202177;59;1240;-72
2022/02/13 02:12:41;;;;;;;;;;;;;;;;;;2202198;59;1294;-72
2022/02/13 02:15:14;;;;;;;;;;;;;;;;;;2201949;59;1477;-72
2022/02/13 02:17:47;;;;;;;;;;;;;;;;;;2200773;59;1763;-73
2022/02/13 02:20:21;;;;;;;;;;;;;;;;;;2202329;59;2131;-72
2022/02/13 02:22:59;;;;;;;;;;;;;;;;;;2202413;59;1933;-72
2022/02/13 02:25:32;;;;;;;;;;;;;;;;;;2204424;59;2251;-73
2022/02/13 02:28:06;;;;;;;;;;;;;;;;;;2205297;59;1312;-72
2022/02/13 02:30:39;;;;;;;;;;;;;;;;;;2204181;59;1246;-72
2022/02/13 02:33:14;;;;;;;;;;;;;;;;;;2204544;59;1209;-73
2022/02/13 02:35:47;;;;;;;;;;;;;;;;;;2204503;59;1304;-72
2022/02/13 02:38:23;;;;;;;;;;;;;;;;;;2205347;59;1198;-73
2022/02/13 02:40:57;;;;;;;;;;;;;;;;;;2205772;59;1332;-74
2022/02/13 02:43:30;;;;;;;;;;;;;;;;;;2204267;59;1931;-72
2022/02/13 02:46:03;;;;;;;;;;;;;;;;;;2204944;59;1159;-73
2022/02/13 02:48:37;;;;;;;;;;;;;;;;;;2203716;59;1428;-72
2022/02/13 02:51:10;;;;;;;;;;;;;;;;;;2204737;59;1552;-73
2022/02/13 02:53:46;;;;;;;;;;;;;;;;;;2203491;59;1841;-72
2022/02/13 02:56:20;;;;;;;;;;;;;;;;;;2205040;59;1205;-72
2022/02/13 02:58:54;;;;;;;;;;;;;;;;;;2203189;59;1336;-72
2022/02/13 03:01:27;;;;;;;;;;;;;;;;;;2203222;59;1188;-72
2022/02/13 03:04:00;;;;;;;;;;;;;;;;;;2201190;59;1943;-72
2022/02/13 03:06:34;;;;;;;;;;;;;;;;;;2202493;59;1799;-73
2022/02/13 03:11:55;;;;;;;;;;;;;;;;;;2202801;59;1603;-72
2022/02/13 03:14:29;;;;;;;;;;;;;;;;;;2203384;59;1306;-72
2022/02/13 03:17:06;;;;;;;;;;;;;;;;;;2204294;59;1373;-73
2022/02/13 03:19:40;;;;;;;;;;;;;;;;;;2204562;59;1243;-72
2022/02/13 03:22:13;;;;;;;;;;;;;;;;;;2201184;59;1291;-72
2022/02/13 03:24:49;;;;;;;;;;;;;;;;;;2202936;59;1928;-72
2022/02/13 03:27:22;;;;;;;;;;;;;;;;;;2203685;59;1268;-72
2022/02/13 03:29:56;;;;;;;;;;;;;;;;;;2203430;59;1231;-73
2022/02/13 03:32:30;;;;;;;;;;;;;;;;;;2205170;59;1320;-72
2022/02/13 03:35:12;;;;;;;;;;;;;;;;;;2205043;59;1233;-72
2022/02/13 03:37:45;;;;;;;;;;;;;;;;;;2204436;59;1275;-72
2022/02/13 03:40:22;;;;;;;;;;;;;;;;;;2204635;59;1224;-72
2022/02/13 03:42:55;;;;;;;;;;;;;;;;;;2204614;59;1672;-72
2022/02/13 03:45:29;;;;;;;;;;;;;;;;;;2203065;59;1924;-72
2022/02/13 03:48:02;;;;;;;;;;;;;;;;;;2204547;59;1732;-72
2022/02/13 03:50:35;;;;;;;;;;;;;;;;;;2199583;59;1590;-72
2022/02/13 03:53:09;;;;;;;;;;;;;;;;;;2204659;59;1203;-72
2022/02/13 03:55:45;;;;;;;;;;;;;;;;;;2206153;59;1234;-72
2022/02/13 03:58:18;;;;;;;;;;;;;;;;;;2204218;59;1490;-72
2022/02/13 04:00:51;;;;;;;;;;;;;;;;;;2205223;59;1351;-72
2022/02/13 04:03:25;;;;;;;;;;;;;;;;;;2204304;59;1755;-72
2022/02/13 04:05:58;;;;;;;;;;;;;;;;;;2203515;59;1936;-72
2022/02/13 04:08:32;;;;;;;;;;;;;;;;;;2205740;59;1399;-72
2022/02/13 04:11:08;;;;;;;;;;;;;;;;;;2203808;59;1298;-72
2022/02/13 04:13:41;;;;;;;;;;;;;;;;;;2202842;59;1259;-72
2022/02/13 04:16:14;;;;;;;;;;;;;;;;;;2205905;59;1302;-73
2022/02/13 04:18:49;;;;;;;;;;;;;;;;;;2205201;59;1196;-72
2022/02/13 04:21:22;;;;;;;;;;;;;;;;;;2204961;59;1412;-72
2022/02/13 04:23:55;;;;;;;;;;;;;;;;;;2207380;53;2578;-68
2022/02/13 04:26:31;;;;;;;;;;;;;;;;;;2208169;59;1128;-68
2022/02/13 04:29:04;;;;;;;;;;;;;;;;;;2211307;59;1246;-68
2022/02/13 04:31:38;;;;;;;;;;;;;;;;;;2209891;59;1152;-68
2022/02/13 04:34:12;;;;;;;;;;;;;;;;;;2209779;59;1187;-68
2022/02/13 04:36:45;;;;;;;;;;;;;;;;;;2208222;59;1198;-68
2022/02/13 04:39:18;;;;;;;;;;;;;;;;;;2209416;59;1298;-68
2022/02/13 04:41:54;;;;;;;;;;;;;;;;;;2208077;59;2226;-68
2022/02/13 04:44:27;;;;;;;;;;;;;;;;;;2207792;59;1943;-68
2022/02/13 04:47:00;;;;;;;;;;;;;;;;;;2208567;59;1435;-68
2022/02/13 04:49:33;;;;;;;;;;;;;;;;;;2208571;59;1609;-68
2022/02/13 04:52:07;;;;;;;;;;;;;;;;;;2210110;59;1273;-69
2022/02/13 04:54:40;;;;;;;;;;;;;;;;;;2208236;59;1283;-69
2022/02/13 04:57:16;;;;;;;;;;;;;;;;;;2208883;59;1094;-68
2022/02/13 04:59:49;;;;;;;;;;;;;;;;;;2208849;59;1167;-68
2022/02/13 05:02:22;;;;;;;;;;;;;;;;;;2210563;59;1212;-68
2022/02/13 05:04:55;;;;;;;;;;;;;;;;;;2208199;59;2046;-68
2022/02/13 05:07:28;;;;;;;;;;;;;;;;;;2209364;59;2175;-68
2022/02/13 05:10:01;;;;;;;;;;;;;;;;;;2209415;59;1261;-68
2022/02/13 05:12:37;;;;;;;;;;;;;;;;;;2207452;59;1282;-68
2022/02/13 05:15:11;;;;;;;;;;;;;;;;;;2210107;59;1444;-68
2022/02/13 05:17:44;;;;;;;;;;;;;;;;;;2209912;59;1346;-68
2022/02/13 05:20:17;;;;;;;;;;;;;;;;;;2209184;59;1303;-68
2022/02/13 05:22:50;;;;;;;;;;;;;;;;;;2209005;59;1551;-68
2022/02/13 05:25:24;;;;;;;;;;;;;;;;;;2207562;59;1929;-68
2022/02/13 05:27:59;;;;;;;;;;;;;;;;;;2208927;59;1658;-68
2022/02/13 05:30:33;;;;;;;;;;;;;;;;;;2208248;59;1182;-69
2022/02/13 05:33:06;;;;;;;;;;;;;;;;;;2210001;59;1116;-68
2022/02/13 05:35:39;;;;;;;;;;;;;;;;;;2209306;59;2323;-68
2022/02/13 05:38:12;;;;;;;;;;;;;;;;;;2208472;59;1157;-68
2022/02/13 05:40:45;;;;;;;;;;;;;;;;;;2209075;59;1334;-68
2022/02/13 05:43:21;;;;;;;;;;;;;;;;;;2208553;59;1732;-68
2022/02/13 05:45:54;;;;;;;;;;;;;;;;;;2208873;59;1937;-68
2022/02/13 05:48:27;;;;;;;;;;;;;;;;;;2209782;59;1543;-68
2022/02/13 05:51:01;;;;;;;;;;;;;;;;;;2209040;59;2580;-68
2022/02/13 05:53:34;;;;;;;;;;;;;;;;;;2207763;59;1400;-68
2022/02/13 05:56:07;;;;;;;;;;;;;;;;;;2209201;59;1203;-68
2022/02/13 05:58:44;;;;;;;;;;;;;;;;;;2208256;59;1177;-68
2022/02/13 06:01:17;;;;;;;;;;;;;;;;;;2208798;59;2137;-68
2022/02/13 06:03:50;;;;;;;;;;;;;;;;;;2210196;59;2773;-68
2022/02/13 06:06:23;;;;;;;;;;;;;;;;;;2207902;59;2016;-68
2022/02/13 06:08:57;;;;;;;;;;;;;;;;;;2208775;59;2526;-68
2022/02/13 06:11:30;;;;;;;;;;;;;;;;;;2208396;59;1739;-68
2022/02/13 06:14:06;;;;;;;;;;;;;;;;;;2208546;59;1242;-68
2022/02/13 06:16:39;;;;;;;;;;;;;;;;;;2209842;59;1295;-69
2022/02/13 06:19:12;;;;;;;;;;;;;;;;;;2209350;59;1250;-68
2022/02/13 06:21:45;;;;;;;;;;;;;;;;;;2208886;59;1727;-68
2022/02/13 06:24:18;;;;;;;;;;;;;;;;;;2208732;59;1945;-68
2022/02/13 06:26:51;;;;;;;;;;;;;;;;;;2208904;59;1359;-68
2022/02/13 06:29:27;;;;;;;;;;;;;;;;;;2208908;59;1146;-68
2022/02/13 06:32:01;;;;;;;;;;;;;;;;;;2208762;59;1377;-68
2022/02/13 06:34:34;;;;;;;;;;;;;;;;;;2209325;59;1253;-68
2022/02/13 06:37:07;;;;;;;;;;;;;;;;;;2210046;59;1180;-68
2022/02/13 06:39:40;;;;;;;;;;;;;;;;;;2209483;59;1301;-68
2022/02/13 06:42:13;;;;;;;;;;;;;;;;;;2210126;59;1237;-68
2022/02/13 06:44:49;;;;;;;;;;;;;;;;;;2209596;59;2360;-68
2022/02/13 06:47:22;;;;;;;;;;;;;;;;;;2209505;59;2315;-68
2022/02/13 06:49:55;;;;;;;;;;;;;;;;;;2209268;59;1469;-68
2022/02/13 06:52:29;;;;;;;;;;;;;;;;;;2210535;59;1623;-69
2022/02/13 06:55:02;;;;;;;;;;;;;;;;;;2213266;59;1189;-68
2022/02/13 06:57:35;;;;;;;;;;;;;;;;;;2209017;59;1139;-68
2022/02/13 07:00:12;;;;;;;;;;;;;;;;;;2210310;59;1358;-68
2022/02/13 07:02:45;;;;;;;;;;;;;;;;;;2208613;59;1918;-69
2022/02/13 07:05:19;;;;;;;;;;;;;;;;;;2208611;59;1987;-68
2022/02/13 07:07:53;;;;;;;;;;;;;;;;;;2209094;59;1290;-69
2022/02/13 07:10:26;;;;;;;;;;;;;;;;;;2209586;59;1264;-69
2022/02/13 07:12:59;;;;;;;;;;;;;;;;;;2208647;59;2567;-68
2022/02/13 07:15:37;;;;;;;;;;;;;;;;;;2209612;59;1130;-68
2022/02/13 07:18:10;;;;;;;;;;;;;;;;;;2210453;59;1244;-68
2022/02/13 07:20:43;;;;;;;;;;;;;;;;;;2208984;59;1162;-68
2022/02/13 07:23:16;;;;;;;;;;;;;;;;;;2209304;59;1904;-68
2022/02/13 07:25:50;;;;;;;;;;;;;;;;;;2208352;59;1952;-68
2022/02/13 07:31:15;;;;;;;;;;;;;;;;;;2210183;59;1855;-68
2022/02/13 07:33:48;;;;;;;;;;;;;;;;;;2208318;59;1232;-69
2022/02/13 07:36:21;;;;;;;;;;;;;;;;;;2209086;59;1188;-69
2022/02/13 07:38:55;;;;;;;;;;;;;;;;;;2210176;59;1237;-69
2022/02/13 07:41:28;;;;;;;;;;;;;;;;;;2209068;59;1553;-69
2022/02/13 07:44:02;;;;;;;;;;;;;;;;;;2208359;59;1703;-69
2022/02/13 07:46:38;;;;;;;;;;;;;;;;;;2208585;59;2334;-69
2022/02/13 07:49:11;;;;;;;;;;;;;;;;;;2209130;59;1453;-69
2022/02/13 07:51:44;;;;;;;;;;;;;;;;;;2209055;59;1175;-69
2022/02/13 07:54:17;;;;;;;;;;;;;;;;;;2208651;59;1442;-69
2022/02/13 07:56:51;;;;;;;;;;;;;;;;;;2209509;59;1579;-69
2022/02/13 07:59:24;;;;;;;;;;;;;;;;;;2209429;59;1772;-69
2022/02/13 08:02:00;;;;;;;;;;;;;;;;;;2209942;59;1228;-69
2022/02/13 08:04:35;;;;;;;;;;;;;;;;;;2209224;59;1654;-69
2022/02/13 08:07:08;;;;;;;;;;;;;;;;;;2209798;59;2000;-69
2022/02/13 08:09:42;;;;;;;;;;;;;;;;;;2209055;59;1709;-69
2022/02/13 08:12:15;;;;;;;;;;;;;;;;;;2210387;59;2815;-69
2022/02/13 08:14:48;;;;;;;;;;;;;;;;;;2210167;59;2291;-69
2022/02/13 08:17:26;;;;;;;;;;;;;;;;;;2209775;59;1680;-70
2022/02/13 08:19:59;;;;;;;;;;;;;;;;;;2208266;59;1198;-69
2022/02/13 08:22:32;;;;;;;;;;;;;;;;;;2209812;59;2230;-70
2022/02/13 08:25:06;;;;;;;;;;;;;;;;;;2208651;59;1984;-69
2022/02/13 08:27:39;;;;;;;;;;;;;;;;;;2212910;59;2277;-69
2022/02/13 08:30:13;;;;;;;;;;;;;;;;;;2208506;59;1340;-69
2022/02/13 08:32:49;;;;;;;;;;;;;;;;;;2209191;59;1291;-69
2022/02/13 08:35:24;;;;;;;;;;;;;;;;;;2209339;59;1708;-69
2022/02/13 08:37:57;;;;;;;;;;;;;;;;;;2210203;59;1215;-69
2022/02/13 08:40:30;;;;;;;;;;;;;;;;;;2210153;59;1651;-70
2022/02/13 08:43:03;;;;;;;;;;;;;;;;;;2209270;59;2065;-70
2022/02/13 08:45:38;;;;;;;;;;;;;;;;;;2208019;59;2004;-69
2022/02/13 08:48:14;;;;;;;;;;;;;;;;;;2208159;59;1457;-69
2022/02/13 08:50:47;;;;;;;;;;;;;;;;;;2208257;59;1141;-69
2022/02/13 08:53:20;;;;;;;;;;;;;;;;;;2209113;59;1701;-69
2022/02/13 08:55:53;;;;;;;;;;;;;;;;;;2210288;59;1888;-69
2022/02/13 08:58:26;;;;;;;;;;;;;;;;;;2209660;59;1154;-69
2022/02/13 09:00:59;;;;;;;;;;;;;;;;;;2208168;59;1262;-69
2022/02/13 09:03:35;;;;;;;;;;;;;;;;;;2208802;59;1825;-69
2022/02/13 09:06:08;;;;;;;;;;;;;;;;;;2209487;59;1933;-70
2022/02/13 09:08:42;;;;;;;;;;;;;;;;;;2209003;59;1139;-69
2022/02/13 09:11:15;;;;;;;;;;;;;;;;;;2208911;59;1289;-69
2022/02/13 09:13:48;;;;;;;;;;;;;;;;;;2206977;59;1286;-69
2022/02/13 09:16:22;;;;;;;;;;;;;;;;;;2208477;59;1888;-69
2022/02/13 09:18:57;;;;;;;;;;;;;;;;;;2209478;59;1683;-69
2022/02/13 09:21:31;;;;;;;;;;;;;;;;;;2208641;59;1803;-70
2022/02/13 09:24:04;;;;;;;;;;;;;;;;;;2208816;59;1466;-69
2022/02/13 09:26:38;;;;;;;;;;;;;;;;;;2208492;59;1999;-69
2022/02/13 09:29:11;;;;;;;;;;;;;;;;;;2209856;59;1836;-70
2022/02/13 09:31:44;;;;;;;;;;;;;;;;;;2204756;59;1726;-69
2022/02/13 09:34:25;;;;;;;;;;;;;;;;;;2208392;59;1427;-71
2022/02/13 09:36:58;;;;;;;;;;;;;;;;;;2197208;59;1948;-70
2022/02/13 09:39:32;;;;;;;;;;;;;;;;;;2207373;59;1727;-70
2022/02/13 09:42:06;;;;;;;;;;;;;;;;;;2206840;59;2439;-70
2022/02/13 09:44:39;;;;;;;;;;;;;;;;;;2204662;59;2112;-70
2022/02/13 09:47:12;;;;;;;;;;;;;;;;;;2210665;59;1951;-70
2022/02/13 09:49:48;;;;;;;;;;;;;;;;;;2208663;59;1647;-70
2022/02/13 09:52:22;;;;;;;;;;;;;;;;;;2207328;59;2280;-70
2022/02/13 09:54:55;;;;;;;;;;;;;;;;;;2206277;59;3467;-70
2022/02/13 10:00:18;;;;;;;;;;;;;;;;;;2208619;59;1848;-69
2022/02/13 10:02:51;;;;;;;;;;;;;;;;;;2207138;59;1794;-70
2022/02/13 10:05:32;;;;;;;;;;;;;;;;;;2209169;59;1898;-70
2022/02/13 10:08:05;;;;;;;;;;;;;;;;;;2203731;59;1906;-70
2022/02/13 10:10:39;;;;;;;;;;;;;;;;;;2208490;59;1727;-70
2022/02/13 10:13:13;;;;;;;;;;;;;;;;;;2208510;59;2436;-71
2022/02/13 10:15:46;;;;;;;;;;;;;;;;;;2207446;59;1846;-70
2022/02/13 10:18:19;;;;;;;;;;;;;;;;;;2208938;59;1516;-70
2022/02/13 10:20:55;;;;;;;;;;;;;;;;;;2205067;59;1814;-71
2022/02/13 10:23:28;;;;;;;;;;;;;;;;;;2205626;53;3564;-71
2022/02/13 10:26:02;;;;;;;;;;;;;;;;;;2208582;59;1931;-71
2022/02/13 10:28:40;;;;;;;;;;;;;;;;;;2212282;59;1158;-71
2022/02/13 10:31:13;;;;;;;;;;;;;;;;;;2211869;59;2626;-71
2022/02/13 10:33:58;;;;;;;;;;;;;;;;;;2209698;59;1762;-71
2022/02/13 10:36:40;;;;;;;;;;;;;;;;;;2206915;59;1919;-71
2022/02/13 10:39:20;;;;;;;;;;;;;;;;;;2207256;59;1840;-71
2022/02/13 10:41:54;;;;;;;;;;;;;;;;;;2209842;59;2249;-71
2022/02/13 10:44:28;;;;;;;;;;;;;;;;;;2207041;59;2682;-71
2022/02/13 10:47:01;;;;;;;;;;;;;;;;;;2206660;59;1986;-71
2022/02/13 10:49:38;;;;;;;;;;;;;;;;;;2207516;59;1570;-71
2022/02/13 10:52:14;;;;;;;;;;;;;;;;;;2208930;59;1760;-71
2022/02/13 10:54:48;;;;;;;;;;;;;;;;;;2205685;59;2701;-71
2022/02/13 10:57:21;;;;;;;;;;;;;;;;;;2204683;59;1984;-71
2022/02/13 10:59:54;;;;;;;;;;;;;;;;;;2210652;59;1243;-71
2022/02/13 11:02:28;;;;;;;;;;;;;;;;;;2210824;59;1247;-72
2022/02/13 11:05:02;;;;;;;;;;;;;;;;;;2209447;59;1887;-71
2022/02/13 11:07:38;;;;;;;;;;;;;;;;;;2209912;59;1925;-71
2022/02/13 11:10:15;;;;;;;;;;;;;;;;;;2208600;59;1737;-71
2022/02/13 11:12:49;;;;;;;;;;;;;;;;;;2209681;59;1661;-71
2022/02/13 11:15:23;;;;;;;;;;;;;;;;;;2211512;59;1129;-71
2022/02/13 11:17:59;;;;;;;;;;;;;;;;;;2210784;59;1356;-71
2022/02/13 11:20:33;;;;;;;;;;;;;;;;;;2210982;59;1164;-71
2022/02/13 11:23:25;;;;;;;;;;;;;;;;;;2210778;59;1590;-71
2022/02/13 11:25:59;;;;;;;;;;;;;;;;;;2210115;59;1868;-71
2022/02/13 11:28:49;;;;;;;;;;;;;;;;;;2210843;59;1240;-71
2022/02/13 11:31:39;;;;;;;;;;;;;;;;;;2207104;59;1523;-70
2022/02/13 11:34:14;;;;;;;;;;;;;;;;;;2210795;59;1191;-71
2022/02/13 11:36:49;;;;;;;;;;;;;;;;;;2211161;59;1548;-71
2022/02/13 11:39:39;;;;;;;;;;;;;;;;;;2210519;59;1203;-71
2022/02/13 11:42:18;;;;;;;;;;;;;;;;;;2211142;59;1268;-71
2022/02/13 11:44:54;;;;;;;;;;;;;;;;;;2206989;59;2537;-71
2022/02/13 11:47:41;;;;;;;;;;;;;;;;;;2209342;59;1993;-71
2022/02/13 11:50:21;;;;;;;;;;;;;;;;;;2200182;59;1896;-71
2022/02/13 11:52:56;;;;;;;;;;;;;;;;;;2210788;59;1677;-71
2022/02/13 11:55:32;;;;;;;;;;;;;;;;;;2211594;59;1184;-71
2022/02/13 11:58:08;;;;;;;;;;;;;;;;;;2211591;59;1266;-71
2022/02/13 12:00:49;;;;;;;;;;;;;;;;;;2207522;59;1656;-71
2022/02/13 12:03:24;;;;;;;;;;;;;;;;;;2210608;59;1624;-71
2022/02/13 12:06:22;;;;;;;;;;;;;;;;;;2210592;59;1450;-72
2022/02/13 12:08:58;;;;;;;;;;;;;;;;;;2211074;59;1120;-71
2022/02/13 12:11:35;;;;;;;;;;;;;;;;;;2211421;59;1284;-71
2022/02/13 12:14:15;;;;;;;;;;;;;;;;;;2209986;59;1286;-71
2022/02/13 12:16:52;;;;;;;;;;;;;;;;;;2210600;59;1464;-70
2022/02/13 12:19:29;;;;;;;;;;;;;;;;;;2210745;59;1557;-71
2022/02/13 12:22:09;;;;;;;;;;;;;;;;;;2210282;59;1262;-71
2022/02/13 12:24:43;;;;;;;;;;;;;;;;;;2209317;59;1725;-71
2022/02/13 12:27:19;;;;;;;;;;;;;;;;;;2209961;59;1932;-71
2022/02/13 12:29:53;;;;;;;;;;;;;;;;;;2209459;59;2043;-70
2022/02/13 12:32:28;;;;;;;;;;;;;;;;;;2209707;59;1276;-71
2022/02/13 12:35:02;;;;;;;;;;;;;;;;;;2209957;59;1471;-71
2022/02/13 12:37:38;;;;;;;;;;;;;;;;;;2210653;59;1238;-71
2022/02/13 12:40:12;;;;;;;;;;;;;;;;;;2210764;59;1146;-71
2022/02/13 12:42:49;;;;;;;;;;;;;;;;;;2209876;59;1602;-71
2022/02/13 12:45:23;;;;;;;;;;;;;;;;;;2208295;59;2592;-71
2022/02/13 12:47:57;;;;;;;;;;;;;;;;;;2209703;59;2123;-71
2022/02/13 12:50:32;;;;;;;;;;;;;;;;;;2210776;59;1210;-71
2022/02/13 12:53:06;;;;;;;;;;;;;;;;;;2209783;59;1742;-71
2022/02/13 12:55:40;;;;;;;;;;;;;;;;;;2210806;59;1189;-71
2022/02/13 12:58:17;;;;;;;;;;;;;;;;;;2210472;59;1269;-71
2022/02/13 13:00:52;;;;;;;;;;;;;;;;;;2209870;59;1730;-71
2022/02/13 13:03:29;;;;;;;;;;;;;;;;;;2210062;59;1611;-71
2022/02/13 13:06:02;;;;;;;;;;;;;;;;;;2210187;59;1227;-71
2022/02/13 13:08:43;;;;;;;;;;;;;;;;;;2210719;59;1985;-70
2022/02/13 13:11:28;;;;;;;;;;;;;;;;;;2210145;59;1455;-70
2022/02/13 13:14:14;;;;;;;;;;;;;;;;;;2209785;59;1175;-71
2022/02/13 13:16:47;;;;;;;;;;;;;;;;;;2210334;59;1562;-70
2022/02/13 13:19:30;;;;;;;;;;;;;;;;;;2210191;59;1586;-71
2022/02/13 13:22:18;;;;;;;;;;;;;;;;;;2210278;59;1328;-71
2022/02/13 13:24:51;;;;;;;;;;;;;;;;;;2210207;59;1734;-71
2022/02/13 13:27:26;;;;;;;;;;;;;;;;;;2210691;59;1978;-70
2022/02/13 13:30:02;;;;;;;;;;;;;;;;;;2206704;59;1362;-71
2022/02/13 13:32:41;;;;;;;;;;;;;;;;;;2210362;59;1269;-71
2022/02/13 13:35:14;;;;;;;;;;;;;;;;;;2209675;59;1165;-71
2022/02/13 13:37:54;;;;;;;;;;;;;;;;;;2209319;59;1650;-71
2022/02/13 13:40:29;;;;;;;;;;;;;;;;;;2206683;59;1204;-71
2022/02/13 13:43:09;;;;;;;;;;;;;;;;;;2210242;59;1553;-71
2022/02/13 13:45:45;;;;;;;;;;;;;;;;;;2209356;59;2515;-71
2022/02/13 13:48:19;;;;;;;;;;;;;;;;;;2208832;59;2531;-71
2022/02/13 13:50:55;;;;;;;;;;;;;;;;;;2209906;59;1389;-71
2022/02/13 13:53:29;;;;;;;;;;;;;;;;;;2210453;59;1419;-71
2022/02/13 13:56:03;;;;;;;;;;;;;;;;;;2211981;59;1487;-71
2022/02/13 13:58:36;;;;;;;;;;;;;;;;;;2211635;59;1398;-71
2022/02/13 14:01:12;;;;;;;;;;;;;;;;;;2207696;59;1320;-70
2022/02/13 14:03:45;;;;;;;;;;;;;;;;;;2210070;59;1642;-71
2022/02/13 14:06:20;;;;;;;;;;;;;;;;;;2210549;59;1084;-71
2022/02/13 14:08:53;;;;;;;;;;;;;;;;;;2210762;59;1973;-71
2022/02/13 14:11:26;;;;;;;;;;;;;;;;;;2211012;59;1120;-70
2022/02/13 14:14:00;;;;;;;;;;;;;;;;;;2209860;59;1296;-71
2022/02/13 14:16:36;;;;;;;;;;;;;;;;;;2209912;59;1238;-70
2022/02/13 14:19:09;;;;;;;;;;;;;;;;;;2211071;59;1225;-71
2022/02/13 14:21:42;;;;;;;;;;;;;;;;;;2209006;59;1606;-71
2022/02/13 14:24:15;;;;;;;;;;;;;;;;;;2207776;59;1807;-71
2022/02/13 14:26:49;;;;;;;;;;;;;;;;;;2209057;59;1160;-71
2022/02/13 14:29:22;;;;;;;;;;;;;;;;;;2210134;59;1996;-70
2022/02/13 14:31:59;;;;;;;;;;;;;;;;;;2210573;59;1652;-71
2022/02/13 14:34:32;;;;;;;;;;;;;;;;;;2210968;59;1784;-71
2022/02/13 14:37:05;;;;;;;;;;;;;;;;;;2211635;59;1142;-71
2022/02/13 14:39:39;;;;;;;;;;;;;;;;;;2211512;59;1111;-70
2022/02/13 14:42:12;;;;;;;;;;;;;;;;;;2210456;59;1144;-70
2022/02/13 14:44:46;;;;;;;;;;;;;;;;;;2209754;59;1607;-71
2022/02/13 14:47:22;;;;;;;;;;;;;;;;;;2209807;59;2168;-71
2022/02/13 14:49:55;;;;;;;;;;;;;;;;;;2209759;59;2121;-71
2022/02/13 14:52:28;;;;;;;;;;;;;;;;;;2210531;59;1756;-71
2022/02/13 14:55:01;;;;;;;;;;;;;;;;;;2211055;59;1334;-71
2022/02/13 14:57:34;;;;;;;;;;;;;;;;;;2211624;59;1251;-71
2022/02/13 15:00:09;;;;;;;;;;;;;;;;;;2210848;59;1274;-71
2022/02/13 15:02:45;;;;;;;;;;;;;;;;;;2211275;59;1238;-70
2022/02/13 15:05:19;;;;;;;;;;;;;;;;;;2210985;59;2030;-71
2022/02/13 15:07:52;;;;;;;;;;;;;;;;;;2211141;59;1935;-71
2022/02/13 15:10:25;;;;;;;;;;;;;;;;;;2211455;59;1131;-71
2022/02/13 15:12:58;;;;;;;;;;;;;;;;;;2211244;59;1160;-71
2022/02/13 15:15:31;;;;;;;;;;;;;;;;;;2210965;59;1740;-71
2022/02/13 15:18:07;;;;;;;;;;;;;;;;;;2211128;59;1289;-71
2022/02/13 15:20:41;;;;;;;;;;;;;;;;;;2211256;59;1192;-71
2022/02/13 15:23:14;;;;;;;;;;;;;;;;;;2210706;59;1997;-70
2022/02/13 15:25:47;;;;;;;;;;;;;;;;;;2210746;59;1097;-71
2022/02/13 15:28:21;;;;;;;;;;;;;;;;;;2210834;59;2004;-71
2022/02/13 15:30:54;;;;;;;;;;;;;;;;;;2211362;59;1126;-70
2022/02/13 15:33:30;;;;;;;;;;;;;;;;;;2211155;59;1222;-70
2022/02/13 15:36:04;;;;;;;;;;;;;;;;;;2210960;59;1727;-70
2022/02/13 15:38:37;;;;;;;;;;;;;;;;;;2210885;59;1309;-70
2022/02/13 15:41:12;;;;;;;;;;;;;;;;;;2211121;59;1172;-70
2022/02/13 15:43:46;;;;;;;;;;;;;;;;;;2210536;59;1755;-71
2022/02/13 15:46:19;;;;;;;;;;;;;;;;;;2211294;59;1429;-70
2022/02/13 15:48:55;;;;;;;;;;;;;;;;;;2209346;59;2496;-70
2022/02/13 15:51:28;;;;;;;;;;;;;;;;;;2210508;59;1173;-70
2022/02/13 15:54:02;;;;;;;;;;;;;;;;;;2210977;59;1276;-71
2022/02/13 15:56:35;;;;;;;;;;;;;;;;;;2210959;59;1237;-70
2022/02/13 15:59:08;;;;;;;;;;;;;;;;;;2206333;59;1714;-70
2022/02/13 16:01:42;;;;;;;;;;;;;;;;;;2210713;59;1210;-71
2022/02/13 16:04:18;;;;;;;;;;;;;;;;;;2209747;59;1967;-70
2022/02/13 16:06:51;;;;;;;;;;;;;;;;;;2210095;59;1151;-70
2022/02/13 16:09:24;;;;;;;;;;;;;;;;;;2210553;59;2061;-71
2022/02/13 16:11:57;;;;;;;;;;;;;;;;;;2209653;59;1983;-70
2022/02/13 16:14:31;;;;;;;;;;;;;;;;;;2210755;59;1172;-70
2022/02/13 16:17:04;;;;;;;;;;;;;;;;;;2211210;59;1466;-70
2022/02/13 16:19:41;;;;;;;;;;;;;;;;;;2210220;59;1769;-71
2022/02/13 16:22:14;;;;;;;;;;;;;;;;;;2210416;59;1455;-70
2022/02/13 16:24:47;;;;;;;;;;;;;;;;;;2210964;53;3510;-71
2022/02/13 16:27:21;;;;;;;;;;;;;;;;;;2207765;59;2456;-71
2022/02/13 16:29:54;;;;;;;;;;;;;;;;;;2209557;59;1976;-71
2022/02/13 16:32:27;;;;;;;;;;;;;;;;;;2209271;59;1204;-71
2022/02/13 16:35:03;;;;;;;;;;;;;;;;;;2210314;59;1186;-71
2022/02/13 16:37:36;;;;;;;;;;;;;;;;;;2210046;59;1232;-70
2022/02/13 16:40:09;;;;;;;;;;;;;;;;;;2210681;59;1122;-72
2022/02/13 16:42:42;;;;;;;;;;;;;;;;;;2210551;59;2763;-70
2022/02/13 16:45:15;;;;;;;;;;;;;;;;;;2209154;59;2095;-71
2022/02/13 16:47:49;;;;;;;;;;;;;;;;;;2210422;59;2653;-71
2022/02/13 16:50:25;;;;;;;;;;;;;;;;;;2208452;59;2631;-71
2022/02/13 16:52:58;;;;;;;;;;;;;;;;;;2209156;59;2854;-71
2022/02/13 16:55:31;;;;;;;;;;;;;;;;;;2210172;59;1260;-71
2022/02/13 16:58:04;;;;;;;;;;;;;;;;;;2210624;59;1180;-71
2022/02/13 17:00:37;;;;;;;;;;;;;;;;;;2210881;59;1237;-73
2022/02/13 17:03:10;;;;;;;;;;;;;;;;;;2210130;59;1661;-73
2022/02/13 17:05:46;;;;;;;;;;;;;;;;;;2210531;59;1225;-73
2022/02/13 17:08:19;;;;;;;;;;;;;;;;;;2210850;59;1926;-71
2022/02/13 17:10:53;;;;;;;;;;;;;;;;;;2209658;59;1616;-71
2022/02/13 17:13:27;;;;;;;;;;;;;;;;;;2210078;59;1694;-73
2022/02/13 17:16:01;;;;;;;;;;;;;;;;;;2210747;59;1663;-73
2022/02/13 17:18:36;;;;;;;;;;;;;;;;;;2210378;59;1317;-73
2022/02/13 17:21:12;;;;;;;;;;;;;;;;;;2210272;59;1120;-73
2022/02/13 17:23:47;;;;;;;;;;;;;;;;;;2209563;59;1639;-73
2022/02/13 17:26:21;;;;;;;;;;;;;;;;;;2210016;59;1272;-73
2022/02/13 17:28:59;;;;;;;;;;;;;;;;;;2210675;59;1937;-73
2022/02/13 17:31:32;;;;;;;;;;;;;;;;;;2210632;59;1223;-71
2022/02/13 17:34:06;;;;;;;;;;;;;;;;;;2210349;59;1258;-71
2022/02/13 17:36:41;;;;;;;;;;;;;;;;;;2210313;59;1493;-73
2022/02/13 17:39:14;;;;;;;;;;;;;;;;;;2210774;59;1104;-73
2022/02/13 17:41:48;;;;;;;;;;;;;;;;;;2210816;59;1280;-74
2022/02/13 17:44:21;;;;;;;;;;;;;;;;;;2209534;59;1675;-73
2022/02/13 17:46:54;;;;;;;;;;;;;;;;;;2210247;59;1520;-73
2022/02/13 17:49:27;;;;;;;;;;;;;;;;;;2209682;59;2609;-73
2022/02/13 17:52:03;;;;;;;;;;;;;;;;;;2209538;59;2651;-73
2022/02/13 17:54:36;;;;;;;;;;;;;;;;;;2210297;59;1281;-73
2022/02/13 17:57:09;;;;;;;;;;;;;;;;;;2210174;59;1492;-73
2022/02/13 17:59:42;;;;;;;;;;;;;;;;;;2210228;59;1200;-73
2022/02/13 18:02:16;;;;;;;;;;;;;;;;;;2209739;59;1244;-73